Amunt
Inicio > meteoXarxa
Fes-te'n soci

METEOXARXA

Almenara
Ubicació Platja Casablanca
Comarca la Plana Baixa
Altitud (msnm) 12
Posició geogràfica 39° 43' 52.82" N, 00° 11' 5.08" W
Model Oregon WMR100
Presa de dades
Font de les dades El temps. Almenara
Estadístiques. Resum
Data Temperatura (ºC) Humitat (%) Pressió (hPa) Vent (km/h) Precipit. (mm)
Mínima Mitjana Màxima Mínima Mitjana Màxima Mínima Mitjana Màxima Predom. Mitjana Ràfega màxima Total Dies de pluja
Mínima Mitjana Màxima Mínima Mitjana Màxima
Últimes dades diàries
24-02-2017 9,3     11,7     14,1 68,0 81,0 94,0 1.009,0 1.012,5 1.016,0 21,0 12,4  
23-02-2017 10,1     13,1     16,0 55,0 67,0 79,0 1.010,0 1.014,0 1.018,0 40,0 0,0  
22-02-2017 6,0     10,4     14,9 57,0 67,0 77,0 1.017,0 1.019,5 1.022,0 13,0 0,0  
21-02-2017 5,2     10,0     14,8 55,0 65,5 76,0 1.020,0 1.022,0 1.024,0 21,0 0,0  
20-02-2017 6,2     10,3     14,4 63,0 74,0 85,0 1.022,0 1.023,5 1.025,0 17,0 0,0  
19-02-2017 7,5     10,9     14,3 54,0 68,5 83,0 1.019,0 1.022,0 1.025,0 21,0 0,0  
18-02-2017 5,7     9,7     13,7 70,0 78,5 87,0 1.017,0 1.020,0 1.023,0 21,0 0,0  
17-02-2017 6,2     10,2     14,3 75,0 82,5 90,0 1.022,0 1.025,5 1.029,0 21,0 0,0  
16-02-2017 8,7     11,4     14,1 80,0 86,0 92,0 1.028,0 1.029,5 1.031,0 14,0 0,0  
15-02-2017 6,5     10,4     14,4 71,0 81,5 92,0 1.026,0 1.028,5 1.031,0 17,0 0,0  
14-02-2017 7,9     11,2     14,6 65,0 77,5 90,0 1.013,0 1.020,0 1.027,0 17,0 0,0  
13-02-2017 10,0     12,2     14,5 69,0 79,0 89,0 1.002,0 1.007,5 1.013,0 41,0 8,4  
12-02-2017 12,5     13,8     15,2 70,0 77,5 85,0 1.004,0 1.006,0 1.008,0 37,0 0,0  
11-02-2017 10,3     11,8     13,2 62,0 76,0 90,0 1.008,0 1.010,5 1.013,0 39,0 0,0  
10-02-2017 5,3     9,2     13,0 57,0 65,5 74,0 1.011,0 1.012,5 1.014,0 21,0 0,0  
09-02-2017 6,0     9,7     13,3 34,0 50,5 67,0 1.014,0 1.016,5 1.019,0 46,0 0,0  
08-02-2017 10,1     13,1     16,0 15,0 32,5 50,0 1.016,0 1.018,0 1.020,0 72,0 0,0  
07-02-2017 14,3     18,6     22,8 34,0 44,0 54,0 1.014,0 1.016,0 1.018,0 49,0 0,0  
06-02-2017 11,6     15,9     20,2 25,0 34,5 44,0 1.016,0 1.018,0 1.020,0 60,0 0,0  
05-02-2017 11,7     14,9     18,1 24,0 42,5 61,0 1.006,0 1.012,5 1.019,0 89,0 0,1  
04-02-2017 15,4     17,9     20,4 46,0 52,5 59,0 1.008,0 1.010,5 1.013,0 50,0 0,0  
03-02-2017 11,0     15,3     19,6 41,0 55,5 70,0 1.011,0 1.013,0 1.015,0 55,0 0,0  
02-02-2017 8,6     12,3     16,1 68,0 80,5 93,0 1.011,0 1.013,0 1.015,0 23,0 1,7  
01-02-2017 7,7     10,5     13,3 88,0 91,5 95,0 1.013,0 1.014,5 1.016,0 13,0 0,0  
31-01-2017 6,8     9,6     12,3 85,0 90,5 96,0 1.013,0 1.015,0 1.017,0 14,0 0,0  
30-01-2017 8,4     11,1     13,8 68,0 78,5 89,0 1.017,0 1.019,0 1.021,0 13,0 0,0  
29-01-2017 6,2     9,9     13,6 58,0 67,5 77,0 1.020,0 1.021,5 1.023,0 21,0 0,0  
28-01-2017 8,2     11,9     15,7 43,0 60,5 78,0 1.007,0 1.014,5 1.022,0 28,0 2,0  
27-01-2017 8,6     11,2     13,8 65,0 79,0 93,0 1.006,0 1.010,0 1.014,0 28,0 15,3  
26-01-2017 4,2     7,5     10,9 64,0 72,0 80,0 1.013,0 1.015,0 1.017,0 17,0 0,0  
25-01-2017 4,0     8,2     12,4 49,0 59,5 70,0 1.014,0 1.016,0 1.018,0 23,0 0,0  
24-01-2017 5,0     8,9     12,8 50,0 60,5 71,0 1.015,0 1.017,0 1.019,0 15,0 0,0  
Dades del mes en curs (actualitzades fins l'últim dia disponible)
02/2017 5,2 8,9 15,4 12,3 13,0 15,6 22,8 15,0 67,1 95,0 1.002,0 1.016,9 1.031,0   89,0 22,6  
Últimes dades mensuals
01/2017 0,0 5,8 10,3 9,9 9,0 13,9 22,1 23,5 62,1 90,5 1.010,0 1.017,1 1.025,0 79,0 120,9 6
12/2016 3,9 8,4 15,0 11,9 11,0 15,3 17,3 60,5 75,7 86,5 1.012,0 1.024,4 1.033,5 60,0 125,5 7
11/2016 6,7 10,3 16,3 14,2 9,4 18,1 25,6 38,0 65,4 82,0 1.001,0 1.013,8 1.027,0 79,0 98,1 7
10/2016 10,6 16,1 19,2 19,2 19,6 22,3 24,3 54,0 77,3 88,5 999,5 1.015,1 1.028,0 33,0 12,2 8
09/2016 13,6 18,9 23,8 22,6 18,7 26,2 30,4 40,5 68,6 79,5 1.010,5 1.016,5 1.024,0 49,0 14,0 4
08/2016 17,2 20,9 24,7 24,2 25,1 27,5 32,2 59,5 72,6 84,0 1.009,0 1.017,1 1.023,0 38,0 9,8 5
07/2016 17,1 20,7 23,2 23,8 24,2 26,9 29,1 53,0 70,6 83,5 1.012,0 1.016,2 1.020,5 42,0 2,5 2
06/2016 13,8 17,8 22,1 21,1 21,0 24,3 32,4 36,5 69,9 83,0 1.001,0 1.014,6 1.022,5 52,0 1,4 1
05/2016 9,1 13,9 18,1 17,3 17,2 20,7 31,3 39,5 69,3 91,0 1.003,0 1.012,7 1.020,5 50,0 25,4 7
04/2016 6,3 11,3 15,1 15,0 15,0 18,7 26,7 41,0 67,1 83,5 1.003,5 1.011,6 1.017,5 44,0 18,0 8
03/2016 5,4 9,3 13,6 13,3 12,8 17,3 24,0 51,5 67,2 86,5 1.004,0 1.012,8 1.018,5 51,0 1,7 2
Dades de l'any en curs (actualitzades fins l'últim dia disponible)
2017 0,0 7,2 15,4 11,0 9,0 14,7 22,8 15,0 64,4 96,0 1.002,0 1.017,0 1.031,0   89,0 143,5  
Últimes dades anuals